Portada
METAR-TAF:

METAR-TAF

Aeroports :

Phetchabun, Tailàndia

latitud: 16-40-33N, longitud: 101-11-42E, altitud: 137 m

Observació

L'informe es va fer fa 11 minuts, a les 10:00 UTC
Vent 7 kt del Sud, variant entre Sud-Est i Sud-Oest
Temperatura 34°C
Humitat 36%
Pressió 1007 hPa
Visibilitat: 6000 m
Escasses núvols a una alçada de 3000 ft

METAR: VTPB 191000Z 18007KT 130V220 6000 FEW030 34/17 Q1007 NOSIG

Hora: 17:11 (10:11 UTC)

Pronòstic

L'informe es va fer fa 5 hores i 11 minuts, a les 05:00 UTC
Pronòstic vàlid del 19 a les 06 UTC al 20 a les 06 UTC
Vent 5 kt del Sud-Est
Visibilitat: 6000 m
Escasses núvols a una alçada de 2500 ft
Temporalment
l' 19 a les 08 UTC al 19 a les 12 UTC
Vent 15 kt amb direcció variable amb ràfegues de 35 kt
Visibilitat: 4000 m
Escasses núvols a una alçada de 1800 ft, Cumulonimbus.
Cel ennuvolat a una alçada de 2000 ft
tempesta, pluja

TAF: VTPB 190500Z 1906/2006 14005KT 6000 FEW025 TEMPO 1908/1912 VRB15G35KT 4000 TSRA FEW018CB BKN020

Observacions i pronòstics meteorològics de més de 4000 aeroports (METAR i TAF).

Les estacions disponibles són els punts grocs i vermells al mapa.

Posi el ratolí al punt desitjat per veure el nom de l'estació.

Feu clic per veure les observacions i els pronòstics meteorològics.

Per canviar el mapa: feu clic els botons verds amb una creu de color negre per apropar; al botó verd amb un guió per allunyar la imatge; o en les fletxes verdes per a mapes adjacents.


METAR-TAF: